Time;durP1;ratioP1;P1;durP2;ratioP2;P2;SDS_P1;SDS_P2;PMS_P1;PMS_P2;Temp;Humidity;BMP_temperature;BMP_pressure;BME280_temperature;BME280_humidity;BME280_pressure;Samples;Min_cycle;Max_cycle;Signal;HPM_P1;HPM_P2
2023/12/13 00:00:40;;;;;;;14.40;6.22;;;8.70;99.90;;;;;;5060486;28;20088;-76
2023/12/13 00:03:06;;;;;;;15.23;5.82;;;8.70;99.90;;;;;;5075338;28;20108;-77
2023/12/13 00:05:31;;;;;;;14.65;6.70;;;8.70;99.90;;;;;;5088660;28;20027;-76
2023/12/13 00:07:57;;;;;;;13.93;7.13;;;8.70;99.90;;;;;;5071682;28;20054;-76
2023/12/13 00:10:22;;;;;;;19.13;7.22;;;8.60;99.90;;;;;;5084235;28;20020;-76
2023/12/13 00:12:48;;;;;;;16.65;7.93;;;8.60;99.90;;;;;;5064830;28;20036;-76
2023/12/13 00:15:14;;;;;;;22.02;9.38;;;8.60;99.90;;;;;;5079901;28;20142;-76
2023/12/13 00:17:39;;;;;;;18.63;10.35;;;8.60;99.90;;;;;;5077214;28;20025;-76
2023/12/13 00:20:06;;;;;;;23.35;10.95;;;8.60;99.90;;;;;;5068235;28;20596;-76
2023/12/13 00:22:32;;;;;;;23.13;12.30;;;8.60;99.90;;;;;;5056032;28;20029;-76
2023/12/13 00:24:58;;;;;;;25.00;12.32;;;8.60;99.90;;;;;;5075330;28;20042;-76
2023/12/13 00:27:24;;;;;;;24.83;13.15;;;8.50;99.90;;;;;;5056261;28;20041;-76
2023/12/13 00:29:49;;;;;;;20.83;12.55;;;8.50;99.90;;;;;;5054680;28;20410;-76
2023/12/13 00:32:15;;;;;;;22.65;12.15;;;8.60;99.90;;;;;;5051096;28;20382;-76
2023/12/13 00:34:40;;;;;;;26.60;13.48;;;8.60;99.90;;;;;;5076570;28;20016;-76
2023/12/13 00:37:06;;;;;;;29.73;13.45;;;8.60;99.90;;;;;;5087487;28;20016;-77
2023/12/13 00:39:32;;;;;;;27.48;13.05;;;8.60;99.90;;;;;;5086320;28;20422;-77
2023/12/13 00:41:57;;;;;;;24.65;13.25;;;8.60;99.90;;;;;;5066428;28;20046;-77
2023/12/13 00:44:23;;;;;;;23.40;13.25;;;8.60;99.90;;;;;;5076180;28;20024;-77
2023/12/13 00:46:48;;;;;;;21.83;13.27;;;8.60;99.90;;;;;;5077595;28;20016;-77
2023/12/13 00:49:14;;;;;;;20.77;12.63;;;8.60;99.90;;;;;;5065260;28;20332;-77
2023/12/13 00:51:40;;;;;;;25.55;12.35;;;8.60;99.90;;;;;;5078883;28;20055;-77
2023/12/13 00:54:05;;;;;;;25.48;12.82;;;8.60;99.90;;;;;;5063968;28;20068;-77
2023/12/13 00:56:31;;;;;;;20.00;12.05;;;8.70;99.90;;;;;;5065307;28;20017;-77
2023/12/13 00:58:57;;;;;;;24.27;10.65;;;8.70;99.90;;;;;;5070711;28;20056;-77
2023/12/13 01:01:24;;;;;;;23.38;9.90;;;8.70;99.90;;;;;;5075760;28;20044;-77
2023/12/13 01:03:49;;;;;;;24.65;9.20;;;8.70;99.90;;;;;;5076540;28;20059;-76
2023/12/13 01:06:15;;;;;;;20.48;8.50;;;8.70;99.90;;;;;;5072734;28;20486;-76
2023/12/13 01:08:40;;;;;;;15.63;7.50;;;8.70;99.90;;;;;;5077967;28;20016;-76
2023/12/13 01:11:10;;;;;;;23.80;8.57;;;8.80;99.90;;;;;;5070786;28;20395;-76
2023/12/13 01:13:36;;;;;;;16.75;8.05;;;8.80;99.90;;;;;;5072633;28;20036;-76
2023/12/13 01:16:02;;;;;;;20.42;7.78;;;8.80;99.90;;;;;;5073994;28;20550;-76
2023/12/13 01:18:28;;;;;;;16.85;7.82;;;8.80;99.90;;;;;;5071877;28;20044;-76
2023/12/13 01:20:53;;;;;;;19.00;6.60;;;8.80;99.90;;;;;;5070209;28;20027;-76
2023/12/13 01:23:19;;;;;;;14.55;6.60;;;8.80;99.90;;;;;;5059381;28;20423;-76
2023/12/13 01:25:44;;;;;;;13.40;5.95;;;8.80;99.90;;;;;;5078736;28;20023;-76
2023/12/13 01:28:10;;;;;;;16.48;6.30;;;8.80;99.90;;;;;;5081548;28;20093;-77
2023/12/13 01:30:35;;;;;;;12.65;5.50;;;8.80;99.90;;;;;;5077422;28;20410;-77
2023/12/13 01:33:01;;;;;;;11.68;5.80;;;8.80;99.90;;;;;;5082682;28;20024;-77
2023/12/13 01:35:27;;;;;;;13.18;5.78;;;8.80;99.90;;;;;;5056807;28;20023;-77
2023/12/13 01:37:52;;;;;;;16.58;6.45;;;8.80;99.90;;;;;;5080718;28;20024;-76
2023/12/13 01:40:18;;;;;;;17.67;6.15;;;8.90;99.90;;;;;;5086175;28;20395;-77
2023/12/13 01:42:43;;;;;;;15.57;6.85;;;8.90;99.90;;;;;;5078645;28;20055;-77
2023/12/13 01:45:09;;;;;;;13.68;6.65;;;8.90;99.90;;;;;;5080202;28;20020;-77
2023/12/13 01:47:36;;;;;;;12.60;6.95;;;8.90;99.90;;;;;;5068932;28;20734;-76
2023/12/13 01:50:02;;;;;;;11.18;6.57;;;8.80;99.90;;;;;;5071949;28;20020;-77
2023/12/13 01:52:29;;;;;;;12.30;6.53;;;8.80;99.90;;;;;;5065552;28;20033;-76
2023/12/13 01:54:54;;;;;;;15.77;5.90;;;8.80;99.90;;;;;;5070365;28;20013;-77
2023/12/13 01:57:20;;;;;;;13.40;5.78;;;8.80;99.90;;;;;;5079302;28;20146;-76
2023/12/13 01:59:46;;;;;;;11.93;5.45;;;8.80;99.90;;;;;;5064902;28;20044;-77
2023/12/13 02:02:12;;;;;;;13.07;6.57;;;8.80;99.90;;;;;;5076772;28;20024;-77
2023/12/13 02:04:38;;;;;;;13.88;6.57;;;8.80;99.90;;;;;;5075966;28;20031;-77
2023/12/13 02:07:04;;;;;;;16.25;7.60;;;8.80;99.90;;;;;;5077328;28;20035;-76
2023/12/13 02:09:30;;;;;;;15.32;7.93;;;8.80;99.90;;;;;;5062327;28;20025;-77
2023/12/13 02:11:56;;;;;;;18.10;8.90;;;8.80;99.90;;;;;;5070086;28;20035;-76
2023/12/13 02:14:22;;;;;;;20.65;9.98;;;8.80;99.90;;;;;;5071550;28;20403;-76
2023/12/13 02:16:47;;;;;;;20.50;10.80;;;8.80;99.90;;;;;;5074683;28;20034;-76
2023/12/13 02:19:13;;;;;;;22.08;10.38;;;8.70;99.90;;;;;;5077837;28;20545;-76
2023/12/13 02:21:38;;;;;;;21.50;10.05;;;8.70;99.90;;;;;;5063215;28;20013;-76
2023/12/13 02:24:06;;;;;;;17.83;9.38;;;8.70;99.90;;;;;;5064917;28;20059;-76
2023/12/13 02:26:40;;;;;;;18.38;9.43;;;8.70;99.90;;;;;;5078302;28;20023;-76
2023/12/13 02:29:05;;;;;;;21.45;9.32;;;8.70;99.90;;;;;;5091400;28;20068;-76
2023/12/13 02:31:31;;;;;;;15.55;8.20;;;8.70;99.90;;;;;;5077745;28;20059;-76
2023/12/13 02:33:57;;;;;;;17.15;9.23;;;8.60;99.90;;;;;;5066945;28;20033;-76
2023/12/13 02:36:22;;;;;;;15.93;7.93;;;8.60;99.90;;;;;;5054417;28;20032;-77
2023/12/13 02:38:48;;;;;;;17.13;8.45;;;8.60;99.90;;;;;;5064600;28;20100;-76
2023/12/13 02:41:13;;;;;;;18.45;8.52;;;8.60;99.90;;;;;;5092090;28;20020;-76
2023/12/13 02:43:39;;;;;;;14.95;8.35;;;8.60;99.90;;;;;;5066249;28;20028;-76
2023/12/13 02:46:05;;;;;;;18.88;8.38;;;8.60;99.90;;;;;;5079858;28;20116;-77
2023/12/13 02:48:30;;;;;;;19.13;8.88;;;8.60;99.90;;;;;;5085690;28;20095;-76
2023/12/13 02:50:56;;;;;;;19.25;8.95;;;8.60;99.90;;;;;;5075703;28;20024;-76
2023/12/13 02:53:23;;;;;;;18.38;9.10;;;8.60;99.90;;;;;;5076717;28;20119;-76
2023/12/13 02:55:48;;;;;;;22.02;9.20;;;8.50;99.90;;;;;;5075886;28;20107;-76
2023/12/13 02:58:14;;;;;;;20.77;9.45;;;8.50;99.90;;;;;;5078188;28;20111;-76
2023/12/13 03:00:40;;;;;;;18.15;9.48;;;8.50;99.90;;;;;;5070917;28;20077;-76
2023/12/13 03:03:05;;;;;;;21.20;10.18;;;8.50;99.90;;;;;;5084739;28;20035;-76
2023/12/13 03:05:31;;;;;;;22.10;10.75;;;8.50;99.90;;;;;;5073925;28;20068;-76
2023/12/13 03:07:56;;;;;;;20.02;9.82;;;8.40;99.90;;;;;;5081471;28;20027;-76
2023/12/13 03:10:22;;;;;;;21.33;9.82;;;8.40;99.90;;;;;;5079870;28;20020;-77
2023/12/13 03:12:47;;;;;;;21.60;10.80;;;8.40;99.90;;;;;;5072262;28;20543;-75
2023/12/13 03:15:13;;;;;;;22.58;11.02;;;8.30;99.90;;;;;;5066138;28;20029;-75
2023/12/13 03:17:39;;;;;;;23.00;10.98;;;8.30;99.90;;;;;;5067691;28;20020;-75
2023/12/13 03:20:05;;;;;;;20.23;10.82;;;8.30;99.90;;;;;;5052465;28;20017;-76
2023/12/13 03:22:31;;;;;;;22.80;11.50;;;8.30;99.90;;;;;;5076971;28;20024;-76
2023/12/13 03:24:57;;;;;;;25.88;10.75;;;8.20;99.90;;;;;;5090189;28;20475;-76
2023/12/13 03:27:23;;;;;;;22.92;13.05;;;8.20;99.90;;;;;;5084492;28;20032;-76
2023/12/13 03:29:48;;;;;;;22.25;14.07;;;8.20;99.90;;;;;;5073596;28;20049;-76
2023/12/13 03:32:14;;;;;;;26.00;14.10;;;8.20;99.90;;;;;;5070817;28;20486;-76
2023/12/13 03:34:40;;;;;;;22.63;13.15;;;8.20;99.90;;;;;;5080716;28;20067;-76
2023/12/13 03:37:06;;;;;;;31.02;16.33;;;8.20;99.90;;;;;;5079215;28;20498;-76
2023/12/13 03:39:33;;;;;;;27.40;15.70;;;8.20;99.90;;;;;;5064228;28;20514;-76
2023/12/13 03:41:58;;;;;;;28.30;16.30;;;8.20;99.90;;;;;;5084373;28;20070;-75
2023/12/13 03:44:24;;;;;;;38.65;16.70;;;8.20;99.90;;;;;;5063186;28;20064;-76
2023/12/13 03:46:49;;;;;;;28.50;15.13;;;8.20;99.90;;;;;;5080175;28;20120;-75
2023/12/13 03:49:16;;;;;;;28.55;14.90;;;8.20;99.90;;;;;;5064657;28;20017;-76
2023/12/13 03:51:46;;;;;;;28.00;15.43;;;8.20;99.90;;;;;;5064577;28;20530;-76
2023/12/13 03:54:14;;;;;;;24.73;15.30;;;8.20;99.90;;;;;;5072400;28;20028;-77
2023/12/13 03:56:40;;;;;;;28.70;15.63;;;8.20;99.90;;;;;;5075276;28;20087;-75
2023/12/13 03:59:06;;;;;;;28.13;15.63;;;8.20;99.90;;;;;;5071943;28;20139;-75
2023/12/13 04:01:31;;;;;;;25.85;14.48;;;8.20;99.90;;;;;;5072661;28;20028;-76
2023/12/13 04:03:57;;;;;;;26.02;14.55;;;8.30;99.90;;;;;;5075289;28;20052;-76
2023/12/13 04:06:22;;;;;;;23.70;13.15;;;8.20;99.90;;;;;;5062506;28;20026;-76
2023/12/13 04:08:48;;;;;;;22.85;13.20;;;8.30;99.90;;;;;;5087399;28;20016;-75
2023/12/13 04:11:14;;;;;;;26.52;12.45;;;8.30;99.90;;;;;;5088411;28;20028;-76
2023/12/13 04:13:39;;;;;;;27.95;12.10;;;8.30;99.90;;;;;;5078204;28;20028;-75
2023/12/13 04:16:05;;;;;;;21.15;11.52;;;8.30;99.90;;;;;;5080530;28;20008;-76
2023/12/13 04:18:31;;;;;;;18.88;10.38;;;8.30;99.90;;;;;;5077891;28;20471;-76
2023/12/13 04:20:56;;;;;;;21.38;9.40;;;8.30;99.90;;;;;;5070132;28;20017;-76
2023/12/13 04:23:22;;;;;;;23.17;10.18;;;8.30;99.90;;;;;;5070576;28;20113;-76
2023/12/13 04:25:47;;;;;;;24.08;9.88;;;8.30;99.90;;;;;;5068267;28;20384;-76
2023/12/13 04:28:13;;;;;;;21.90;9.88;;;8.40;99.90;;;;;;5073497;28;20094;-76
2023/12/13 04:30:39;;;;;;;26.77;9.68;;;8.40;99.90;;;;;;5088397;28;20060;-76
2023/12/13 04:33:04;;;;;;;19.67;9.40;;;8.40;99.90;;;;;;5079000;28;20025;-76
2023/12/13 04:35:32;;;;;;;17.70;9.18;;;8.40;99.90;;;;;;5084909;28;20016;-76
2023/12/13 04:37:57;;;;;;;18.77;9.07;;;8.40;99.90;;;;;;5073057;28;20021;-76
2023/12/13 04:40:23;;;;;;;19.90;8.68;;;8.40;99.90;;;;;;5062433;28;20026;-75
2023/12/13 04:42:49;;;;;;;24.45;9.70;;;8.40;99.90;;;;;;5081029;28;20379;-76
2023/12/13 04:45:15;;;;;;;17.95;9.23;;;8.40;99.90;;;;;;5077736;28;20020;-76
2023/12/13 04:47:40;;;;;;;23.65;9.10;;;8.40;99.90;;;;;;5078557;28;20019;-76
2023/12/13 04:50:07;;;;;;;20.30;8.90;;;8.40;99.90;;;;;;5070013;28;20452;-76
2023/12/13 04:52:33;;;;;;;24.25;9.07;;;8.50;99.90;;;;;;5062347;28;20033;-75
2023/12/13 04:54:58;;;;;;;24.35;10.10;;;8.50;99.90;;;;;;5074372;28;20024;-76
2023/12/13 04:57:24;;;;;;;24.67;11.32;;;8.50;99.90;;;;;;5074608;28;20020;-76
2023/12/13 04:59:49;;;;;;;33.03;11.00;;;8.50;99.90;;;;;;5077413;28;20024;-76
2023/12/13 05:02:15;;;;;;;26.95;11.00;;;8.50;99.90;;;;;;5068688;28;20052;-76
2023/12/13 05:04:41;;;;;;;24.13;11.38;;;8.50;99.90;;;;;;5077045;28;20020;-76
2023/12/13 05:07:08;;;;;;;23.77;11.70;;;8.50;99.90;;;;;;5086897;28;20422;-76
2023/12/13 05:09:34;;;;;;;29.77;12.43;;;8.60;99.90;;;;;;5061422;28;20021;-76
2023/12/13 05:11:59;;;;;;;29.40;13.98;;;8.50;99.90;;;;;;5056295;28;20024;-76
2023/12/13 05:14:25;;;;;;;33.33;15.15;;;8.60;99.90;;;;;;5074529;28;20514;-76
2023/12/13 05:16:51;;;;;;;33.70;16.20;;;8.60;99.90;;;;;;5065139;28;20404;-76
2023/12/13 05:19:16;;;;;;;35.22;16.60;;;8.60;99.90;;;;;;5061864;28;20444;-76
2023/12/13 05:21:42;;;;;;;39.35;16.38;;;8.60;99.90;;;;;;5057831;28;20021;-76
2023/12/13 05:24:08;;;;;;;32.65;16.20;;;8.70;99.90;;;;;;5070377;28;20104;-76
2023/12/13 05:26:34;;;;;;;36.03;16.42;;;8.70;99.90;;;;;;5081894;28;20035;-76
2023/12/13 05:29:00;;;;;;;33.90;15.25;;;8.70;99.90;;;;;;5067921;28;20049;-76
2023/12/13 05:31:26;;;;;;;37.50;15.65;;;8.80;99.90;;;;;;5067313;28;20023;-76
2023/12/13 05:33:51;;;;;;;32.58;14.88;;;8.80;99.90;;;;;;5059765;28;20032;-76
2023/12/13 05:36:17;;;;;;;35.67;14.77;;;8.80;99.90;;;;;;5082744;28;20020;-76
2023/12/13 05:38:43;;;;;;;29.85;14.35;;;8.80;99.90;;;;;;5064154;28;20059;-73
2023/12/13 05:41:09;;;;;;;37.92;14.57;;;8.80;99.90;;;;;;5070464;28;20510;-76
2023/12/13 05:43:35;;;;;;;34.38;14.52;;;8.80;99.90;;;;;;5058121;28;20091;-76
2023/12/13 05:46:01;;;;;;;30.08;14.70;;;8.80;99.90;;;;;;5074470;28;20082;-76
2023/12/13 05:48:27;;;;;;;35.72;14.02;;;8.80;99.90;;;;;;5074413;28;20016;-76
2023/12/13 05:50:53;;;;;;;35.22;13.75;;;8.80;99.90;;;;;;5081850;28;20107;-76
2023/12/13 05:53:18;;;;;;;34.17;14.57;;;8.70;99.90;;;;;;5075918;28;20032;-76
2023/12/13 05:55:44;;;;;;;31.88;13.73;;;8.70;99.90;;;;;;5071374;28;20036;-76
2023/12/13 05:58:09;;;;;;;36.25;14.23;;;8.70;99.90;;;;;;5078196;28;20538;-76
2023/12/13 06:00:35;;;;;;;39.13;15.05;;;8.70;99.90;;;;;;5068539;28;20032;-76
2023/12/13 06:03:01;;;;;;;35.38;13.93;;;8.70;99.90;;;;;;5059821;28;20104;-76
2023/12/13 06:05:26;;;;;;;39.58;13.93;;;8.70;99.90;;;;;;5066711;28;20036;-76
2023/12/13 06:07:52;;;;;;;39.60;15.20;;;8.70;99.90;;;;;;5061340;28;20032;-76
2023/12/13 06:10:17;;;;;;;40.22;14.40;;;8.70;99.90;;;;;;5063568;28;20017;-76
2023/12/13 06:12:43;;;;;;;39.50;15.35;;;8.70;99.90;;;;;;5065775;28;20025;-76
2023/12/13 06:15:09;;;;;;;36.33;14.35;;;8.70;99.90;;;;;;5056411;28;20022;-76
2023/12/13 06:17:35;;;;;;;31.75;13.60;;;8.70;99.90;;;;;;5055171;28;20028;-76
2023/12/13 06:20:01;;;;;;;35.03;14.15;;;8.70;99.90;;;;;;5059801;28;20031;-76
2023/12/13 06:22:26;;;;;;;38.53;14.80;;;8.70;99.90;;;;;;5077642;28;20028;-76
2023/12/13 06:24:52;;;;;;;40.17;15.52;;;8.70;99.90;;;;;;5080168;28;20032;-76
2023/12/13 06:27:17;;;;;;;34.85;14.85;;;8.70;99.90;;;;;;5083611;28;20028;-75
2023/12/13 06:29:43;;;;;;;32.05;13.40;;;8.70;99.90;;;;;;5068684;28;20056;-76
2023/12/13 06:32:10;;;;;;;35.90;14.18;;;8.70;99.90;;;;;;5072859;28;20107;-77
2023/12/13 06:34:35;;;;;;;31.48;13.80;;;8.70;99.90;;;;;;5070060;28;20220;-77
2023/12/13 06:37:01;;;;;;;32.92;13.43;;;8.70;99.90;;;;;;5070302;28;20016;-76
2023/12/13 06:39:26;;;;;;;33.10;13.30;;;8.70;99.90;;;;;;5064522;28;20101;-77
2023/12/13 06:41:52;;;;;;;42.28;14.63;;;8.70;99.90;;;;;;5069178;28;20095;-77
2023/12/13 06:44:17;;;;;;;35.70;13.40;;;8.70;99.90;;;;;;5072007;28;20035;-77
2023/12/13 06:46:43;;;;;;;35.38;12.85;;;8.80;99.90;;;;;;5069170;28;20474;-77
2023/12/13 06:49:09;;;;;;;36.92;13.82;;;8.80;99.90;;;;;;5074819;28;20025;-76
2023/12/13 06:51:36;;;;;;;33.38;13.02;;;8.80;99.90;;;;;;5064871;28;20021;-76
2023/12/13 06:54:01;;;;;;;36.83;13.65;;;8.80;99.90;;;;;;5072175;28;20044;-76
2023/12/13 06:56:27;;;;;;;32.25;13.40;;;8.80;99.90;;;;;;5071771;28;20064;-76
2023/12/13 06:58:53;;;;;;;39.47;14.10;;;8.80;99.90;;;;;;5070723;28;20040;-76
2023/12/13 07:01:18;;;;;;;35.28;13.13;;;8.80;99.90;;;;;;5073245;28;20111;-77
2023/12/13 07:03:44;;;;;;;40.67;13.88;;;8.80;99.90;;;;;;5061587;28;20036;-76
2023/12/13 07:06:09;;;;;;;33.03;13.02;;;8.80;99.90;;;;;;5064597;28;20021;-76
2023/12/13 07:08:35;;;;;;;31.35;12.55;;;8.80;99.90;;;;;;5062854;28;20044;-76
2023/12/13 07:11:03;;;;;;;33.00;13.18;;;8.80;99.90;;;;;;5062027;28;20021;-77
2023/12/13 07:13:30;;;;;;;36.25;13.20;;;8.80;99.90;;;;;;5062978;28;20476;-76
2023/12/13 07:15:55;;;;;;;33.28;13.25;;;8.80;99.90;;;;;;5060979;28;20033;-76
2023/12/13 07:18:21;;;;;;;42.38;14.32;;;8.80;99.90;;;;;;5066019;28;20021;-76
2023/12/13 07:20:47;;;;;;;32.55;12.98;;;8.80;99.90;;;;;;5081131;28;20531;-76
2023/12/13 07:23:13;;;;;;;36.88;13.30;;;8.80;99.90;;;;;;5072650;28;20029;-76
2023/12/13 07:25:39;;;;;;;33.53;14.00;;;8.80;99.90;;;;;;5076755;28;20478;-76
2023/12/13 07:28:04;;;;;;;31.77;13.88;;;8.80;99.90;;;;;;5070720;28;20516;-76
2023/12/13 07:30:30;;;;;;;37.70;14.30;;;8.80;99.90;;;;;;5076294;28;20487;-77
2023/12/13 07:32:55;;;;;;;35.10;14.25;;;8.80;99.90;;;;;;5071380;28;20036;-76
2023/12/13 07:35:22;;;;;;;38.28;15.18;;;8.90;99.90;;;;;;5077847;28;20077;-77
2023/12/13 07:37:48;;;;;;;37.97;14.27;;;8.90;99.90;;;;;;5070070;28;20025;-77
2023/12/13 07:40:14;;;;;;;33.58;14.68;;;8.90;99.90;;;;;;5069009;28;20013;-77
2023/12/13 07:42:41;;;;;;;34.45;14.65;;;8.90;99.90;;;;;;5068431;28;20044;-77
2023/12/13 07:45:10;;;;;;;35.90;14.60;;;8.90;99.90;;;;;;5058781;28;20025;-76
2023/12/13 07:47:36;;;;;;;38.92;16.08;;;8.90;99.90;;;;;;5068570;28;20050;-77
2023/12/13 07:50:03;;;;;;;42.42;14.90;;;8.90;99.90;;;;;;5064638;28;20103;-77
2023/12/13 07:52:28;;;;;;;30.65;14.32;;;8.90;99.90;;;;;;5069413;28;20024;-77
2023/12/13 07:54:55;;;;;;;39.00;15.20;;;8.90;99.90;;;;;;5078646;28;20020;-76
2023/12/13 07:57:21;;;;;;;36.17;14.95;;;8.90;99.90;;;;;;5072149;28;20059;-77
2023/12/13 07:59:46;;;;;;;39.25;14.85;;;8.90;99.90;;;;;;5074981;28;20064;-76
2023/12/13 08:02:12;;;;;;;46.13;14.95;;;8.90;99.90;;;;;;5070136;28;20066;-76
2023/12/13 08:04:41;;;;;;;35.55;14.75;;;8.90;99.90;;;;;;5067425;28;20112;-77
2023/12/13 08:07:06;;;;;;;42.47;14.35;;;8.90;99.90;;;;;;5072149;28;20067;-77
2023/12/13 08:09:32;;;;;;;40.15;14.52;;;8.90;99.90;;;;;;5081661;28;20056;-77
2023/12/13 08:11:58;;;;;;;30.92;13.93;;;8.90;99.90;;;;;;5084795;28;20462;-77
2023/12/13 08:14:30;;;;;;;37.13;13.73;;;8.90;99.90;;;;;;5074203;28;20454;-77
2023/12/13 08:16:56;;;;;;;37.25;13.75;;;8.90;99.90;;;;;;5069752;28;20050;-77
2023/12/13 08:19:21;;;;;;;36.67;14.02;;;8.90;99.90;;;;;;5079429;28;20028;-77
2023/12/13 08:21:47;;;;;;;39.47;13.68;;;8.90;99.90;;;;;;5070421;28;20119;-77
2023/12/13 08:24:12;;;;;;;41.75;14.07;;;8.90;99.90;;;;;;5086588;28;20103;-77
2023/12/13 08:26:38;;;;;;;33.83;14.00;;;9.00;99.90;;;;;;5072072;28;20012;-77
2023/12/13 08:29:04;;;;;;;44.63;14.07;;;9.00;99.90;;;;;;5066942;28;20055;-77
2023/12/13 08:31:30;;;;;;;43.90;14.50;;;8.90;99.90;;;;;;5069235;28;20546;-77
2023/12/13 08:33:56;;;;;;;37.38;14.48;;;9.00;99.90;;;;;;5081539;28;20601;-77
2023/12/13 08:36:22;;;;;;;39.67;15.07;;;9.00;99.90;;;;;;5070218;28;20024;-77
2023/12/13 08:38:48;;;;;;;42.00;15.02;;;9.00;99.90;;;;;;5067466;28;20443;-77
2023/12/13 08:41:14;;;;;;;38.90;14.93;;;9.00;99.90;;;;;;5084085;28;20095;-77
2023/12/13 08:43:40;;;;;;;44.25;15.20;;;9.00;99.90;;;;;;5070910;28;20097;-77
2023/12/13 08:46:06;;;;;;;39.22;16.33;;;9.10;99.90;;;;;;5074300;28;20024;-77
2023/12/13 08:48:31;;;;;;;42.63;15.73;;;9.10;99.90;;;;;;5066881;28;20052;-77
2023/12/13 08:50:58;;;;;;;40.13;15.60;;;9.10;99.90;;;;;;5066230;28;20103;-77
2023/12/13 08:53:24;;;;;;;47.63;16.52;;;9.10;99.90;;;;;;5066530;28;20023;-77
2023/12/13 08:55:50;;;;;;;45.92;15.90;;;9.20;99.90;;;;;;5065677;28;20017;-77
2023/12/13 08:58:15;;;;;;;46.42;16.45;;;9.20;99.90;;;;;;5079150;28;20507;-77
2023/12/13 09:00:41;;;;;;;46.20;16.48;;;9.20;99.90;;;;;;5075261;28;20504;-77
2023/12/13 09:03:08;;;;;;;42.05;16.55;;;9.20;99.90;;;;;;5073628;28;20029;-77
2023/12/13 09:05:34;;;;;;;43.67;16.95;;;9.30;99.90;;;;;;5062606;28;20019;-77
2023/12/13 09:08:00;;;;;;;44.45;15.68;;;9.30;99.90;;;;;;5077500;28;20485;-77
2023/12/13 09:10:26;;;;;;;38.40;17.00;;;9.30;99.90;;;;;;5064755;28;20063;-77
2023/12/13 09:12:51;;;;;;;44.45;15.80;;;9.30;99.90;;;;;;5070539;28;20127;-77
2023/12/13 09:15:18;;;;;;;44.38;16.02;;;9.30;99.90;;;;;;5068641;28;20468;-76
2023/12/13 09:17:47;;;;;;;35.53;14.68;;;9.40;99.90;;;;;;5079785;28;20024;-76
2023/12/13 09:20:16;;;;;;;42.92;16.17;;;9.40;99.90;;;;;;5063928;28;20035;-77
2023/12/13 09:22:42;;;;;;;46.47;16.77;;;9.40;99.90;;;;;;5063757;28;20105;-77
2023/12/13 09:25:09;;;;;;;42.40;15.75;;;9.40;99.90;;;;;;5068911;28;20071;-77
2023/12/13 09:27:38;;;;;;;46.25;16.20;;;9.40;99.90;;;;;;5069140;28;20016;-77
2023/12/13 09:30:04;;;;;;;37.60;15.63;;;9.40;99.90;;;;;;5067040;28;20427;-77
2023/12/13 09:32:33;;;;;;;35.50;14.20;;;9.50;99.90;;;;;;5068639;28;20028;-77
2023/12/13 09:34:59;;;;;;;43.17;16.63;;;9.50;99.90;;;;;;5060753;28;20104;-77
2023/12/13 09:37:24;;;;;;;47.28;16.40;;;9.50;99.90;;;;;;5070377;28;20095;-77
2023/12/13 09:39:50;;;;;;;42.95;15.85;;;9.50;99.90;;;;;;5069841;28;20028;-77
2023/12/13 09:42:17;;;;;;;38.47;15.70;;;9.60;99.90;;;;;;5070180;28;20016;-77
2023/12/13 09:44:44;;;;;;;41.08;16.80;;;9.60;99.90;;;;;;5071004;28;20024;-77
2023/12/13 09:47:10;;;;;;;40.75;15.80;;;9.70;99.90;;;;;;5079040;28;20077;-77
2023/12/13 09:49:37;;;;;;;38.03;15.18;;;9.70;99.90;;;;;;5082374;28;20020;-77
2023/12/13 09:52:05;;;;;;;33.83;16.38;;;9.70;99.90;;;;;;5068306;28;20017;-77
2023/12/13 09:54:31;;;;;;;41.08;16.42;;;9.70;99.90;;;;;;5075803;28;20270;-77
2023/12/13 09:56:57;;;;;;;41.67;16.17;;;9.80;99.90;;;;;;5077400;28;20028;-77
2023/12/13 09:59:24;;;;;;;47.28;18.20;;;9.70;99.90;;;;;;5055754;28;20376;-77
2023/12/13 10:01:49;;;;;;;38.00;16.63;;;9.70;99.90;;;;;;5069280;28;20086;-77
2023/12/13 10:04:15;;;;;;;46.25;17.65;;;9.70;99.90;;;;;;5074375;28;20028;-77
2023/12/13 10:06:41;;;;;;;42.80;18.08;;;9.70;99.90;;;;;;5064393;28;20377;-77
2023/12/13 10:09:07;;;;;;;43.45;17.48;;;9.70;99.90;;;;;;5070937;28;20078;-77
2023/12/13 10:11:33;;;;;;;40.10;18.30;;;9.80;99.90;;;;;;5080516;28;20055;-77
2023/12/13 10:13:59;;;;;;;42.20;17.73;;;9.70;99.90;;;;;;5068627;28;20029;-77
2023/12/13 10:16:28;;;;;;;46.15;17.02;;;9.70;99.90;;;;;;5065916;28;20348;-77
2023/12/13 10:18:54;;;;;;;43.63;17.75;;;9.70;99.90;;;;;;5069567;28;20475;-77
2023/12/13 10:21:19;;;;;;;44.78;18.67;;;9.70;99.90;;;;;;5057442;28;20021;-77
2023/12/13 10:23:45;;;;;;;49.30;18.83;;;9.70;99.90;;;;;;5055531;28;20108;-77
2023/12/13 10:26:12;;;;;;;44.72;18.40;;;9.80;99.90;;;;;;5057147;28;20021;-77
2023/12/13 10:28:38;;;;;;;39.17;17.85;;;9.80;99.90;;;;;;5052340;28;20575;-75
2023/12/13 10:31:04;;;;;;;51.97;19.25;;;9.80;99.90;;;;;;5058775;28;20112;-77
2023/12/13 10:33:30;;;;;;;42.83;17.85;;;9.80;99.90;;;;;;5061697;28;20383;-77
2023/12/13 10:35:58;;;;;;;47.22;18.58;;;9.80;99.90;;;;;;5074044;28;20391;-77
2023/12/13 10:38:25;;;;;;;47.90;17.58;;;9.80;99.90;;;;;;5070607;28;20510;-77
2023/12/13 10:40:52;;;;;;;42.95;18.30;;;9.80;99.90;;;;;;5080187;28;20150;-77
2023/12/13 10:43:20;;;;;;;42.28;18.00;;;9.80;99.90;;;;;;5068999;28;20078;-77
2023/12/13 10:46:01;;;;;;;48.47;17.17;;;9.90;99.90;;;;;;5073198;28;20531;-77
2023/12/13 10:48:32;;;;;;;37.40;17.80;;;9.90;99.90;;;;;;5085716;28;20089;-77
2023/12/13 10:50:59;;;;;;;39.03;16.95;;;9.90;99.90;;;;;;5073367;28;20139;-77
2023/12/13 10:53:26;;;;;;;36.15;16.08;;;9.90;99.90;;;;;;5068651;28;20039;-77
2023/12/13 10:55:54;;;;;;;40.85;15.82;;;9.90;99.90;;;;;;5076362;28;20020;-77
2023/12/13 10:58:20;;;;;;;35.10;15.57;;;9.90;99.90;;;;;;5063252;28;20013;-77
2023/12/13 11:00:47;;;;;;;36.42;15.63;;;9.90;99.90;;;;;;5073473;28;20028;-77
2023/12/13 11:03:22;;;;;;;37.00;15.93;;;9.90;99.90;;;;;;5074477;28;20028;-77
2023/12/13 11:05:48;;;;;;;38.55;15.23;;;9.90;99.90;;;;;;5068689;28;20024;-77
2023/12/13 11:08:16;;;;;;;38.38;15.30;;;9.90;99.90;;;;;;5065020;28;20486;-77
2023/12/13 11:10:53;;;;;;;32.38;15.07;;;9.90;99.90;;;;;;5076825;28;20027;-78
2023/12/13 11:13:23;;;;;;;36.03;15.82;;;9.90;99.90;;;;;;5088059;28;20658;-78
2023/12/13 11:15:48;;;;;;;33.72;15.80;;;9.90;99.90;;;;;;5072194;28;20016;-78
2023/12/13 11:18:15;;;;;;;39.03;16.60;;;9.90;99.90;;;;;;5076912;28;20356;-77
2023/12/13 11:20:52;;;;;;;32.50;16.70;;;9.90;99.90;;;;;;5067956;28;20017;-78
2023/12/13 11:23:26;;;;;;;38.78;16.63;;;10.00;99.90;;;;;;5066898;28;20159;-77
2023/12/13 11:25:54;;;;;;;32.47;15.50;;;10.00;99.90;;;;;;5068580;28;20123;-77
2023/12/13 11:28:21;;;;;;;31.38;15.80;;;10.00;99.90;;;;;;5070971;28;20044;-78
2023/12/13 11:30:47;;;;;;;34.97;16.17;;;10.00;99.90;;;;;;5078764;28;20551;-77
2023/12/13 11:33:14;;;;;;;35.63;15.73;;;10.00;99.90;;;;;;5071522;28;20123;-77
2023/12/13 11:35:40;;;;;;;36.90;16.58;;;10.00;99.90;;;;;;5082810;28;20013;-77
2023/12/13 11:38:07;;;;;;;36.00;16.63;;;10.00;99.90;;;;;;5080428;28;20028;-77
2023/12/13 11:40:33;;;;;;;40.08;17.23;;;10.00;99.90;;;;;;5080563;28;20031;-77
2023/12/13 11:42:59;;;;;;;31.33;16.00;;;10.00;99.90;;;;;;5070339;28;20024;-77
2023/12/13 11:45:24;;;;;;;34.47;16.20;;;10.00;99.90;;;;;;5070042;28;20104;-77
2023/12/13 11:47:50;;;;;;;33.95;15.90;;;10.00;99.90;;;;;;5070488;28;20487;-77
2023/12/13 11:50:19;;;;;;;32.30;16.27;;;10.00;99.90;;;;;;5082883;28;20442;-77
2023/12/13 11:52:44;;;;;;;32.97;16.33;;;10.00;99.90;;;;;;5080669;28;20031;-77
2023/12/13 11:55:10;;;;;;;33.47;15.95;;;10.00;99.90;;;;;;5079621;28;20028;-77
2023/12/13 11:57:36;;;;;;;32.03;15.73;;;10.00;99.90;;;;;;5077505;28;20032;-77
2023/12/13 12:00:02;;;;;;;31.85;16.75;;;10.00;99.90;;;;;;5070666;28;20111;-77
2023/12/13 12:02:27;;;;;;;33.70;16.83;;;10.00;99.90;;;;;;5063114;28;20370;-78
2023/12/13 12:04:53;;;;;;;39.35;16.85;;;9.90;99.90;;;;;;5071230;28;20032;-77
2023/12/13 12:07:19;;;;;;;35.92;17.38;;;9.90;99.90;;;;;;5056842;28;20021;-77
2023/12/13 12:09:53;;;;;;;38.70;18.15;;;9.90;99.90;;;;;;5064091;28;20017;-77
2023/12/13 12:12:19;;;;;;;36.17;18.92;;;9.90;99.90;;;;;;5063638;28;20025;-77
2023/12/13 12:14:48;;;;;;;38.95;19.02;;;9.90;99.90;;;;;;5063742;28;20049;-77
2023/12/13 12:17:19;;;;;;;43.85;19.88;;;9.90;99.90;;;;;;5068766;28;20020;-77
2023/12/13 12:19:45;;;;;;;40.38;17.85;;;9.90;99.90;;;;;;5068773;28;20518;-77
2023/12/13 12:22:12;;;;;;;38.75;19.13;;;9.80;99.90;;;;;;5071868;28;20471;-77
2023/12/13 12:24:37;;;;;;;41.55;18.45;;;9.90;99.90;;;;;;5060037;28;20096;-77
2023/12/13 12:27:10;;;;;;;41.10;18.48;;;9.80;99.90;;;;;;5057069;28;20028;-77
2023/12/13 12:29:36;;;;;;;44.13;19.98;;;9.80;99.90;;;;;;5065064;28;20047;-77
2023/12/13 12:32:07;;;;;;;42.45;19.73;;;9.80;99.90;;;;;;5060192;28;20468;-77